• Join FlightAware (Why Join?)
  • Login
  • US Flag 
05:42AM EDT


 

Airport Tracker/Info


-or-


 

Live Flight TrackerFlight Track Log ✈ UAL407 ✈ 15-May-2013 ✈ KALB - KORD

Flight Track Log - Related Links

Times and Time Zones

All times are in EDT time to prevent confusion due to time zone crossing. See the UAL407 flight status page for this flight to view local times or setup timezone preferences in your user account.

Time Position Orientation Groundspeed Altitude Reporting Facility
EDT Latitude Longitude Course Direction KTS MPH feet Rate Location/Type
06:08PM 42.7297 -73.8081 283° West 135 155 1,300  Level Boston Center
06:09PM 42.7022 -73.8469 226° Southwest 206 237 3,300 2,820 Climbing Boston Center
06:10PM 42.7283 -73.9325 293° West 237 273 8,000 3,240 Climbing Boston Center
06:11PM 42.8000 -74.1355 270° West  Level FlightAware Approximate
06:11PM 42.7989 -73.9511 349° North 229 264 10,900  Level Boston Center
06:12PM 42.8182 -74.2498 284° West  Level FlightAware Approximate
06:12PM 42.8819 -73.9758 348° North 251 289 13,900  Level Boston Center
06:13PM 42.8384 -74.3638 283° West  Level FlightAware Approximate
06:13PM 42.9392 -74.0625 312° West 276 318 15,600  Level Boston Center
06:14PM 42.9622 -74.1792 285° West 314 361 17,800 1,740 Climbing Boston Center
06:15PM 42.9750 -74.3044 278° West 347 399 19,100 1,740 Climbing Boston Center
06:16PM 42.9892 -74.4442 278° West 369 425 21,300 1,920 Climbing Boston Center
06:17PM 43.0033 -74.5864 278° West 375 432 23,000 1,500 Climbing Boston Center
06:18PM 43.0156 -74.7061 278° West 386 444 24,300 1,440 Climbing Boston Center
06:19PM 43.0347 -74.8858 278° West 396 456 25,900 1,260 Climbing Boston Center
06:20PM 43.0503 -75.0342 278° West 402 463 26,900 1,080 Climbing Boston Center
06:21PM 43.0653 -75.1942 277° West 413 475 28,100 1,380 Climbing Boston Center
06:22PM 43.0803 -75.3483 278° West 413 475 29,700 1,500 Climbing Boston Center
06:23PM 43.0950 -75.4997 278° West 413 475 31,100 1,440 Climbing Boston Center
06:24PM 43.1097 -75.6483 278° West 407 468 32,600 1,500 Climbing Boston Center
06:25PM 43.1258 -75.8114 278° West 407 468 34,200 1,380 Climbing Boston Center
06:26PM 43.1381 -75.9572 277° West 400 460 35,400 1,200 Climbing Boston Center
06:28PM 43.1586 -76.1969 277° West 377 434 37,600 840 Climbing Cleveland Center
06:29PM 43.1617 -76.3333 272° West 371 427 37,900 120 Climbing Cleveland Center
06:30PM 43.1603 -76.4703 269° West 366 421 37,900  Level Cleveland Center
06:31PM 43.1608 -76.6067 270° West 366 421 37,900  Level Cleveland Center
06:32PM 43.1594 -76.7464 269° West 366 421 38,000  Climbing Cleveland Center
06:33PM 43.1575 -76.8831 269° West 366 421 38,000  Level Cleveland Center
06:34PM 43.1600 -77.0225 271° West 366 421 38,000  Level Cleveland Center
06:35PM 43.1578 -77.1622 269° West 366 421 38,000  Level Cleveland Center
06:36PM 43.1558 -77.3044 269° West 371 427 38,000  Level Cleveland Center
06:37PM 43.1556 -77.4442 270° West 371 427 38,000  Level Cleveland Center
06:38PM 43.1550 -77.5808 270° West 371 427 38,000  Level Cleveland Center
06:39PM 43.1522 -77.7231 269° West 366 421 38,000  Level Cleveland Center
06:40PM 43.1492 -77.8600 268° West 366 421 38,000  Level Cleveland Center
06:41PM 43.1483 -77.9994 270° West 366 421 38,000  Level Cleveland Center
06:42PM 43.1472 -78.1417 269° West 366 421 38,000  Level Cleveland Center
06:43PM 43.1439 -78.2814 268° West 366 421 38,000  Level Cleveland Center
06:44PM 43.1425 -78.4208 269° West 366 421 38,000  Level Cleveland Center
06:45PM 43.1386 -78.5603 268° West 366 421 38,000  Level Cleveland Center
06:46PM 43.1347 -78.7000 268° West 366 421 38,000  Level Cleveland Center
06:47PM 43.1286 -78.8394 267° West 366 421 38,000  Level Cleveland Center
06:48PM 43.1264 -78.9847 269° West 371 427 38,000 -60 Level Cleveland Center
06:49PM 43.1167 -79.1500 265° West 370 426 37,900  Descending Toronto Center
06:50PM 43.1000 -79.2833 260° West 370 426 38,000  Climbing Toronto Center
06:51PM 43.1000 -79.4333 270° West 380 437 38,000  Level Toronto Center
06:52PM 43.1000 -79.5667 270° West 370 426 38,000  Level Toronto Center
06:53PM 43.0833 -79.7000 260° West 370 426 38,000 -60 Level Toronto Center
06:54PM 43.0833 -79.8333 270° West 370 426 37,900  Descending Toronto Center
06:55PM 43.0833 -80.0000 270° West 370 426 38,000  Climbing Toronto Center
06:56PM 43.0667 -80.1333 260° West 370 426 38,000  Level Toronto Center
06:57PM 43.0667 -80.2667 270° West 370 426 38,000  Level Toronto Center
06:58PM 43.0667 -80.4333 270° West 370 426 38,000  Level Toronto Center
06:59PM 43.0667 -80.5667 270° West 370 426 38,000  Level Toronto Center
07:00PM 43.0500 -80.7000 260° West 370 426 38,000  Level Toronto Center
07:01PM 43.0333 -80.8500 261° West 370 426 38,000  Level Toronto Center
07:02PM 43.0333 -80.9833 270° West 370 426 38,000  Level Toronto Center
07:03PM 43.0167 -81.1167 260° West 370 426 38,000  Level Toronto Center
07:04PM 43.0167 -81.2500 270° West 370 426 38,000  Level Toronto Center
07:05PM 43.0167 -81.4167 270° West 370 426 38,000  Level Toronto Center
07:06PM 43.0167 -81.5500 270° West 370 426 38,000  Level Toronto Center
07:07PM 43.0167 -81.6833 270° West 370 426 38,000  Level Toronto Center
07:08PM 43.0167 -81.8167 270° West 370 426 38,000  Level Toronto Center
07:09PM 43.0000 -81.9667 261° West 370 426 38,000  Level Toronto Center
07:10PM 43.0000 -82.1000 270° West 370 426 38,000  Level Toronto Center
07:11PM 43.0000 -82.2333 270° West 370 426 38,000  Level Toronto Center
07:12PM 43.0000 -82.3833 270° West 370 426 38,000  Level Toronto Center
07:13PM 43.0000 -82.5333 270° West 370 426 38,000  Level Toronto Center
07:14PM 42.9833 -82.6667 260° West 370 426 38,000 -240 Level Toronto Center
07:15PM 43.0006 -82.7464 286° West 375 432 37,700 -840 Descending Cleveland Center
07:16PM 42.9978 -82.8911 269° West 381 438 36,700 -1,020 Descending Cleveland Center
07:17PM 42.9906 -83.0328 266° West 386 444 35,700 -960 Descending Cleveland Center
07:18PM 42.9875 -83.1772 268° West 386 444 34,800 -960 Descending Cleveland Center
07:19PM 42.9819 -83.3219 267° West 386 444 33,800 -1,020 Descending Cleveland Center
07:20PM 42.9764 -83.4692 267° West 386 444 32,800 -900 Descending Cleveland Center
07:21PM 42.9703 -83.6222 267° West 391 450 32,000 -420 Descending Cleveland Center
07:22PM 42.9642 -83.7722 267° West 391 450 32,000  Level Cleveland Center
07:23PM 42.9497 -83.9219 263° West 396 456 32,000  Level Cleveland Center
07:24PM 42.9347 -84.0686 262° West 401 461 32,000  Level Cleveland Center
07:26PM 42.9036 -84.3906 263° West 388 447 32,000 -60 Level Chicago Center
07:27PM 42.8889 -84.5400 262° West 397 457 31,900 -540 Descending Chicago Center
07:28PM 42.8728 -84.6872 262° West 396 456 30,900 -1,020 Descending Chicago Center
07:29PM 42.8572 -84.8394 262° West 402 463 29,900 -1,080 Descending Chicago Center
07:30PM 42.8386 -85.0200 262° West 402 463 28,700 -1,080 Descending Chicago Center
07:31PM 42.8219 -85.1700 261° West 402 463 27,700 -1,020 Descending Chicago Center
07:32PM 42.8058 -85.3164 262° West 395 455 26,600 -1,140 Descending Chicago Center
07:34PM 42.7911 -85.4603 262° West 386 444 25,400 -1,140 Descending Chicago Center
07:35PM 42.7686 -85.5994 258° West 379 436 24,300 -1,020 Descending Chicago Center
07:36PM 42.7439 -85.7378 256° West 375 432 23,300 -1,020 Descending Chicago Center
07:37PM 42.7189 -85.8731 256° West 370 426 22,300 -1,080 Descending Chicago Center
07:38PM 42.6906 -86.0306 256° West 357 411 21,100 -1,140 Descending Chicago Center
07:39PM 42.6994 -86.1597 275° West 343 395 20,000 -540 Descending Chicago Center
07:40PM 42.7117 -86.2806 278° West 325 374 20,000  Level Chicago Center
07:41PM 42.6753 -86.3967 247° West 332 382 20,000 -420 Level Chicago Center
07:42PM 42.6394 -86.5114 247° West 332 382 19,200 -1,500 Descending Chicago Center
07:43PM 42.6075 -86.6256 249° West 325 374 17,000 -1,980 Descending Chicago Center
07:44PM 42.5914 -86.7383 259° West 307 353 15,100 -2,100 Descending Chicago Center
07:45PM 42.5761 -86.8703 261° West 296 341 12,700 -2,040 Descending Chicago Center
07:46PM 42.5642 -86.9783 262° West 291 335 11,000 -840 Descending Chicago Center
07:47PM 42.5694 -87.0831 274° West 280 322 11,000 -300 Level Chicago Center
07:48PM 42.5472 -87.1800 253° West 278 320 10,500 -1,020 Descending Chicago Center
07:49PM 42.5047 -87.2567 233° Southwest 259 298 9,000 -780 Descending Chicago Center
07:50PM 42.4731 -87.3425 243° Southwest 254 292 9,000  Level Chicago Center
07:51PM 42.4392 -87.4397 245° Southwest 253 291 9,000 -60 Level Chicago Center
07:52PM 42.4086 -87.5231 244° Southwest 251 289 8,900 -960 Descending Chicago Center
07:53PM 42.3394 -87.5547 199° South 276 318 7,100 -1,860 Descending Chicago Center
07:54PM 42.2644 -87.6031 206° Southwest 266 306 5,100 -1,500 Descending Chicago Center
07:55PM 42.2064 -87.6631 217° Southwest 264 304 4,000 -540 Descending Chicago Center
07:56PM 42.1514 -87.7256 220° Southwest 262 302 4,000 -360 Level Chicago Center
07:57PM 42.1053 -87.7797 221° Southwest 235 270 3,300 -720 Descending Chicago Center